sensor_id;sensor_type;location;lat;lon;timestamp;pressure;altitude;pressure_sealevel;temperature;humidity
52693;BME280;68218;51.012;-1.648;2023-06-04T00:00:00;101342.97;;;12.78;71.36
52693;BME280;68218;51.012;-1.648;2023-06-04T00:02:25;101343.25;;;12.77;72.20
52693;BME280;68218;51.012;-1.648;2023-06-04T00:04:51;101339.63;;;12.71;73.35
52693;BME280;68218;51.012;-1.648;2023-06-04T00:07:16;101344.66;;;12.62;74.72
52693;BME280;68218;51.012;-1.648;2023-06-04T00:09:42;101344.66;;;12.62;75.57
52693;BME280;68218;51.012;-1.648;2023-06-04T00:12:08;101346.53;;;12.62;76.20
52693;BME280;68218;51.012;-1.648;2023-06-04T00:14:33;101350.56;;;12.59;76.76
52693;BME280;68218;51.012;-1.648;2023-06-04T00:16:58;101349.09;;;12.51;77.01
52693;BME280;68218;51.012;-1.648;2023-06-04T00:19:24;101353.63;;;12.46;77.27
52693;BME280;68218;51.012;-1.648;2023-06-04T00:21:49;101356.66;;;12.49;77.23
52693;BME280;68218;51.012;-1.648;2023-06-04T00:24:16;101352.88;;;12.50;77.04
52693;BME280;68218;51.012;-1.648;2023-06-04T00:26:41;101342.88;;;12.51;76.73
52693;BME280;68218;51.012;-1.648;2023-06-04T00:29:06;101341.31;;;12.55;75.44
52693;BME280;68218;51.012;-1.648;2023-06-04T00:31:32;101332.63;;;12.53;74.63
52693;BME280;68218;51.012;-1.648;2023-06-04T00:33:57;101342.19;;;12.61;74.13
52693;BME280;68218;51.012;-1.648;2023-06-04T00:36:23;101345.38;;;12.58;74.20
52693;BME280;68218;51.012;-1.648;2023-06-04T00:38:48;101341.78;;;12.52;73.76
52693;BME280;68218;51.012;-1.648;2023-06-04T00:41:14;101337.19;;;12.52;73.23
52693;BME280;68218;51.012;-1.648;2023-06-04T00:43:39;101348.22;;;12.46;73.68
52693;BME280;68218;51.012;-1.648;2023-06-04T00:46:06;101336.06;;;12.48;73.56
52693;BME280;68218;51.012;-1.648;2023-06-04T00:48:32;101343.53;;;12.41;73.94
52693;BME280;68218;51.012;-1.648;2023-06-04T00:50:58;101338.22;;;12.29;74.10
52693;BME280;68218;51.012;-1.648;2023-06-04T00:53:24;101338.28;;;12.34;74.04
52693;BME280;68218;51.012;-1.648;2023-06-04T00:55:51;101345.75;;;12.27;74.43
52693;BME280;68218;51.012;-1.648;2023-06-04T00:58:17;101345.34;;;12.18;74.42
52693;BME280;68218;51.012;-1.648;2023-06-04T01:00:43;101338.06;;;12.19;73.64
52693;BME280;68218;51.012;-1.648;2023-06-04T01:03:19;101337.16;;;12.13;73.39
52693;BME280;68218;51.012;-1.648;2023-06-04T01:06:00;101329.63;;;12.15;72.42
52693;BME280;68218;51.012;-1.648;2023-06-04T01:08:29;101334.38;;;12.08;72.21
52693;BME280;68218;51.012;-1.648;2023-06-04T01:10:56;101335.34;;;12.02;72.13
52693;BME280;68218;51.012;-1.648;2023-06-04T01:13:22;101338.53;;;11.99;71.70
52693;BME280;68218;51.012;-1.648;2023-06-04T01:15:48;101330.91;;;11.96;71.46
52693;BME280;68218;51.012;-1.648;2023-06-04T01:18:21;101328.25;;;11.84;71.96
52693;BME280;68218;51.012;-1.648;2023-06-04T01:26:04;101328.09;;;11.74;72.77
52693;BME280;68218;51.012;-1.648;2023-06-04T01:28:33;101327.53;;;11.60;72.82
52693;BME280;68218;51.012;-1.648;2023-06-04T01:30:59;101323.78;;;11.61;72.74
52693;BME280;68218;51.012;-1.648;2023-06-04T01:33:27;101328.16;;;11.62;71.80
52693;BME280;68218;51.012;-1.648;2023-06-04T01:35:53;101320.66;;;11.52;71.59
52693;BME280;68218;51.012;-1.648;2023-06-04T01:38:18;101323.13;;;11.54;71.24
52693;BME280;68218;51.012;-1.648;2023-06-04T01:40:45;101325.25;;;11.52;71.26
52693;BME280;68218;51.012;-1.648;2023-06-04T01:43:10;101318.44;;;11.49;70.68
52693;BME280;68218;51.012;-1.648;2023-06-04T01:45:36;101322.94;;;11.43;70.15
52693;BME280;68218;51.012;-1.648;2023-06-04T01:48:02;101310.94;;;11.39;70.04
52693;BME280;68218;51.012;-1.648;2023-06-04T01:50:28;101312.03;;;11.38;69.97
52693;BME280;68218;51.012;-1.648;2023-06-04T01:52:54;101317.25;;;11.28;69.95
52693;BME280;68218;51.012;-1.648;2023-06-04T01:55:19;101319.84;;;11.23;69.04
52693;BME280;68218;51.012;-1.648;2023-06-04T01:57:46;101311.75;;;11.23;69.04
52693;BME280;68218;51.012;-1.648;2023-06-04T02:00:15;101306.00;;;11.19;68.93
52693;BME280;68218;51.012;-1.648;2023-06-04T02:02:42;101314.47;;;11.11;69.28
52693;BME280;68218;51.012;-1.648;2023-06-04T02:05:08;101311.53;;;11.13;69.18
52693;BME280;68218;51.012;-1.648;2023-06-04T02:07:35;101307.91;;;11.07;69.26
52693;BME280;68218;51.012;-1.648;2023-06-04T02:10:09;101303.03;;;10.92;69.40
52693;BME280;68218;51.012;-1.648;2023-06-04T02:12:40;101321.22;;;10.97;69.89
52693;BME280;68218;51.012;-1.648;2023-06-04T02:15:06;101310.03;;;10.93;70.12
52693;BME280;68218;51.012;-1.648;2023-06-04T02:17:32;101312.28;;;10.96;70.26
52693;BME280;68218;51.012;-1.648;2023-06-04T02:19:58;101320.25;;;10.91;70.51
52693;BME280;68218;51.012;-1.648;2023-06-04T02:22:25;101317.91;;;10.83;70.59
52693;BME280;68218;51.012;-1.648;2023-06-04T02:24:51;101310.09;;;10.81;70.82
52693;BME280;68218;51.012;-1.648;2023-06-04T02:27:16;101311.84;;;10.76;71.27
52693;BME280;68218;51.012;-1.648;2023-06-04T02:29:42;101314.53;;;10.76;71.58
52693;BME280;68218;51.012;-1.648;2023-06-04T02:32:08;101316.31;;;10.70;71.94
52693;BME280;68218;51.012;-1.648;2023-06-04T02:34:34;101319.94;;;10.64;72.14
52693;BME280;68218;51.012;-1.648;2023-06-04T02:37:00;101309.03;;;10.59;72.41
52693;BME280;68218;51.012;-1.648;2023-06-04T02:39:25;101316.91;;;10.60;72.44
52693;BME280;68218;51.012;-1.648;2023-06-04T02:41:51;101310.13;;;10.58;72.41
52693;BME280;68218;51.012;-1.648;2023-06-04T02:44:16;101304.25;;;10.49;72.64
52693;BME280;68218;51.012;-1.648;2023-06-04T02:46:42;101302.38;;;10.38;72.82
52693;BME280;68218;51.012;-1.648;2023-06-04T02:49:07;101309.78;;;10.42;72.96
52693;BME280;68218;51.012;-1.648;2023-06-04T02:51:32;101314.47;;;10.35;73.54
52693;BME280;68218;51.012;-1.648;2023-06-04T02:53:58;101300.81;;;10.18;74.28
52693;BME280;68218;51.012;-1.648;2023-06-04T02:56:24;101315.75;;;10.33;74.80
52693;BME280;68218;51.012;-1.648;2023-06-04T02:58:53;101313.84;;;10.33;75.18
52693;BME280;68218;51.012;-1.648;2023-06-04T03:01:25;101311.72;;;10.23;75.54
52693;BME280;68218;51.012;-1.648;2023-06-04T03:03:51;101304.22;;;10.25;75.62
52693;BME280;68218;51.012;-1.648;2023-06-04T03:06:18;101302.00;;;10.22;76.08
52693;BME280;68218;51.012;-1.648;2023-06-04T03:08:46;101311.97;;;10.22;76.02
52693;BME280;68218;51.012;-1.648;2023-06-04T03:11:11;101312.53;;;10.12;76.75
52693;BME280;68218;51.012;-1.648;2023-06-04T03:13:37;101306.00;;;10.20;76.66
52693;BME280;68218;51.012;-1.648;2023-06-04T03:16:03;101310.78;;;10.18;76.95
52693;BME280;68218;51.012;-1.648;2023-06-04T03:18:39;101310.28;;;10.09;76.93
52693;BME280;68218;51.012;-1.648;2023-06-04T03:21:05;101289.44;;;9.92;77.49
52693;BME280;68218;51.012;-1.648;2023-06-04T03:23:31;101318.75;;;10.01;77.63
52693;BME280;68218;51.012;-1.648;2023-06-04T03:25:57;101299.97;;;9.94;77.76
52693;BME280;68218;51.012;-1.648;2023-06-04T03:28:22;101320.03;;;10.10;77.49
52693;BME280;68218;51.012;-1.648;2023-06-04T03:30:48;101327.53;;;10.08;77.32
52693;BME280;68218;51.012;-1.648;2023-06-04T03:33:13;101322.84;;;10.03;77.72
52693;BME280;68218;51.012;-1.648;2023-06-04T03:35:41;101317.53;;;9.97;77.91
52693;BME280;68218;51.012;-1.648;2023-06-04T03:38:07;101314.84;;;9.97;77.84
52693;BME280;68218;51.012;-1.648;2023-06-04T03:40:33;101310.88;;;9.87;77.92
52693;BME280;68218;51.012;-1.648;2023-06-04T03:42:58;101306.06;;;9.89;78.44
52693;BME280;68218;51.012;-1.648;2023-06-04T03:45:25;101304.41;;;9.88;78.35
52693;BME280;68218;51.012;-1.648;2023-06-04T03:47:51;101309.78;;;9.88;78.27
52693;BME280;68218;51.012;-1.648;2023-06-04T03:50:20;101316.84;;;9.89;78.59
52693;BME280;68218;51.012;-1.648;2023-06-04T03:52:45;101308.84;;;9.83;78.46
52693;BME280;68218;51.012;-1.648;2023-06-04T03:55:11;101315.53;;;9.80;78.69
52693;BME280;68218;51.012;-1.648;2023-06-04T03:57:37;101303.38;;;9.89;78.62
52693;BME280;68218;51.012;-1.648;2023-06-04T04:00:07;101309.91;;;9.82;78.70
52693;BME280;68218;51.012;-1.648;2023-06-04T04:02:35;101311.88;;;9.74;78.91
52693;BME280;68218;51.012;-1.648;2023-06-04T04:05:00;101309.41;;;9.73;78.88
52693;BME280;68218;51.012;-1.648;2023-06-04T04:07:26;101293.81;;;9.63;78.89
52693;BME280;68218;51.012;-1.648;2023-06-04T04:09:52;101311.41;;;9.78;78.80
52693;BME280;68218;51.012;-1.648;2023-06-04T04:12:17;101313.03;;;9.67;78.97
52693;BME280;68218;51.012;-1.648;2023-06-04T04:14:42;101309.50;;;9.66;79.33
52693;BME280;68218;51.012;-1.648;2023-06-04T04:17:08;101313.50;;;9.64;78.95
52693;BME280;68218;51.012;-1.648;2023-06-04T04:19:33;101312.69;;;9.63;78.99
52693;BME280;68218;51.012;-1.648;2023-06-04T04:21:59;101307.41;;;9.68;78.99
52693;BME280;68218;51.012;-1.648;2023-06-04T04:24:28;101299.78;;;9.65;78.98
52693;BME280;68218;51.012;-1.648;2023-06-04T04:26:54;101306.69;;;9.61;79.09
52693;BME280;68218;51.012;-1.648;2023-06-04T04:29:23;101312.31;;;9.60;78.96
52693;BME280;68218;51.012;-1.648;2023-06-04T04:31:53;101318.88;;;9.64;78.77
52693;BME280;68218;51.012;-1.648;2023-06-04T04:34:21;101314.16;;;9.59;79.02
52693;BME280;68218;51.012;-1.648;2023-06-04T04:36:49;101302.59;;;9.59;78.69
52693;BME280;68218;51.012;-1.648;2023-06-04T04:39:22;101302.50;;;9.65;78.37
52693;BME280;68218;51.012;-1.648;2023-06-04T04:41:48;101309.75;;;9.65;78.34
52693;BME280;68218;51.012;-1.648;2023-06-04T04:44:13;101309.88;;;9.70;78.41
52693;BME280;68218;51.012;-1.648;2023-06-04T04:46:38;101308.69;;;9.66;77.98
52693;BME280;68218;51.012;-1.648;2023-06-04T04:49:04;101310.25;;;9.73;78.10
52693;BME280;68218;51.012;-1.648;2023-06-04T04:51:29;101319.59;;;9.71;77.66
52693;BME280;68218;51.012;-1.648;2023-06-04T04:53:54;101324.16;;;9.70;77.80
52693;BME280;68218;51.012;-1.648;2023-06-04T04:56:20;101312.31;;;9.71;77.50
52693;BME280;68218;51.012;-1.648;2023-06-04T04:58:48;101317.16;;;9.81;77.67
52693;BME280;68218;51.012;-1.648;2023-06-04T05:01:13;101315.88;;;9.72;77.30
52693;BME280;68218;51.012;-1.648;2023-06-04T05:03:39;101316.78;;;9.66;77.44
52693;BME280;68218;51.012;-1.648;2023-06-04T05:06:04;101318.09;;;9.75;77.40
52693;BME280;68218;51.012;-1.648;2023-06-04T05:08:30;101315.41;;;9.75;77.56
52693;BME280;68218;51.012;-1.648;2023-06-04T05:10:55;101314.47;;;9.81;77.20
52693;BME280;68218;51.012;-1.648;2023-06-04T05:13:20;101301.44;;;9.78;77.42
52693;BME280;68218;51.012;-1.648;2023-06-04T05:15:47;101317.25;;;9.74;77.06
52693;BME280;68218;51.012;-1.648;2023-06-04T05:18:13;101310.38;;;9.79;76.89
52693;BME280;68218;51.012;-1.648;2023-06-04T05:20:41;101316.72;;;9.84;76.61
52693;BME280;68218;51.012;-1.648;2023-06-04T05:23:06;101319.06;;;9.92;76.14
52693;BME280;68218;51.012;-1.648;2023-06-04T05:25:32;101314.94;;;9.90;76.02
52693;BME280;68218;51.012;-1.648;2023-06-04T05:27:57;101326.81;;;9.89;76.07
52693;BME280;68218;51.012;-1.648;2023-06-04T05:30:22;101305.69;;;9.86;76.01
52693;BME280;68218;51.012;-1.648;2023-06-04T05:32:48;101308.22;;;10.11;75.46
52693;BME280;68218;51.012;-1.648;2023-06-04T05:35:15;101315.34;;;10.05;74.97
52693;BME280;68218;51.012;-1.648;2023-06-04T05:37:41;101308.09;;;10.06;75.24
52693;BME280;68218;51.012;-1.648;2023-06-04T05:40:08;101311.13;;;10.09;75.24
52693;BME280;68218;51.012;-1.648;2023-06-04T05:42:34;101315.22;;;10.12;74.87
52693;BME280;68218;51.012;-1.648;2023-06-04T05:44:59;101309.38;;;10.15;74.60
52693;BME280;68218;51.012;-1.648;2023-06-04T05:47:25;101314.56;;;10.28;74.31
52693;BME280;68218;51.012;-1.648;2023-06-04T05:49:50;101319.94;;;10.28;73.86
52693;BME280;68218;51.012;-1.648;2023-06-04T05:52:16;101319.50;;;10.32;73.82
52693;BME280;68218;51.012;-1.648;2023-06-04T05:54:41;101320.09;;;10.45;73.44
52693;BME280;68218;51.012;-1.648;2023-06-04T05:57:06;101321.13;;;10.44;73.50
52693;BME280;68218;51.012;-1.648;2023-06-04T05:59:32;101322.88;;;10.62;72.21
52693;BME280;68218;51.012;-1.648;2023-06-04T06:01:57;101336.63;;;10.61;71.96
52693;BME280;68218;51.012;-1.648;2023-06-04T06:04:23;101325.34;;;10.76;72.34
52693;BME280;68218;51.012;-1.648;2023-06-04T06:06:48;101333.66;;;10.86;71.19
52693;BME280;68218;51.012;-1.648;2023-06-04T06:09:15;101328.72;;;10.83;71.01
52693;BME280;68218;51.012;-1.648;2023-06-04T06:11:41;101328.34;;;11.03;70.54
52693;BME280;68218;51.012;-1.648;2023-06-04T06:14:06;101324.81;;;11.14;70.15
52693;BME280;68218;51.012;-1.648;2023-06-04T06:16:32;101330.63;;;11.23;69.51
52693;BME280;68218;51.012;-1.648;2023-06-04T06:18:58;101314.19;;;11.24;69.24
52693;BME280;68218;51.012;-1.648;2023-06-04T06:21:23;101333.16;;;11.41;68.56
52693;BME280;68218;51.012;-1.648;2023-06-04T06:23:49;101331.47;;;11.52;67.80
52693;BME280;68218;51.012;-1.648;2023-06-04T06:26:14;101325.09;;;11.58;68.06
52693;BME280;68218;51.012;-1.648;2023-06-04T06:28:41;101331.81;;;11.56;66.87
52693;BME280;68218;51.012;-1.648;2023-06-04T06:31:06;101329.56;;;11.53;66.55
52693;BME280;68218;51.012;-1.648;2023-06-04T06:33:32;101317.38;;;11.50;67.11
52693;BME280;68218;51.012;-1.648;2023-06-04T06:35:57;101323.59;;;11.51;66.52
52693;BME280;68218;51.012;-1.648;2023-06-04T06:38:26;101319.22;;;11.78;66.32
52693;BME280;68218;51.012;-1.648;2023-06-04T06:40:52;101324.16;;;11.81;66.68
52693;BME280;68218;51.012;-1.648;2023-06-04T06:43:18;101324.03;;;12.05;66.21
52693;BME280;68218;51.012;-1.648;2023-06-04T06:45:43;101325.25;;;11.97;64.75
52693;BME280;68218;51.012;-1.648;2023-06-04T06:48:09;101324.03;;;12.05;64.98
52693;BME280;68218;51.012;-1.648;2023-06-04T06:50:34;101328.22;;;12.13;64.31
52693;BME280;68218;51.012;-1.648;2023-06-04T06:53:02;101328.19;;;11.96;64.11
52693;BME280;68218;51.012;-1.648;2023-06-04T06:55:27;101329.84;;;11.97;64.34
52693;BME280;68218;51.012;-1.648;2023-06-04T06:57:52;101318.88;;;12.21;62.97
52693;BME280;68218;51.012;-1.648;2023-06-04T07:00:18;101327.06;;;12.43;62.83
52693;BME280;68218;51.012;-1.648;2023-06-04T07:02:44;101327.91;;;12.65;62.94
52693;BME280;68218;51.012;-1.648;2023-06-04T07:05:10;101334.50;;;12.52;61.89
52693;BME280;68218;51.012;-1.648;2023-06-04T07:07:35;101336.13;;;12.70;61.42
52693;BME280;68218;51.012;-1.648;2023-06-04T07:10:01;101333.38;;;12.87;61.12
52693;BME280;68218;51.012;-1.648;2023-06-04T07:12:29;101333.97;;;13.34;60.55
52693;BME280;68218;51.012;-1.648;2023-06-04T07:14:54;101345.44;;;13.24;58.96
52693;BME280;68218;51.012;-1.648;2023-06-04T07:17:19;101339.66;;;13.59;57.95
52693;BME280;68218;51.012;-1.648;2023-06-04T07:19:46;101340.50;;;13.92;57.50
52693;BME280;68218;51.012;-1.648;2023-06-04T07:22:12;101341.16;;;13.50;58.22
52693;BME280;68218;51.012;-1.648;2023-06-04T07:24:37;101322.41;;;13.71;57.88
52693;BME280;68218;51.012;-1.648;2023-06-04T07:27:10;101338.16;;;14.38;56.45
52693;BME280;68218;51.012;-1.648;2023-06-04T07:29:35;101343.97;;;14.20;56.61
52693;BME280;68218;51.012;-1.648;2023-06-04T07:32:01;101342.69;;;14.28;56.93
52693;BME280;68218;51.012;-1.648;2023-06-04T07:34:26;101339.72;;;14.29;56.34
52693;BME280;68218;51.012;-1.648;2023-06-04T07:36:52;101335.31;;;14.23;55.85
52693;BME280;68218;51.012;-1.648;2023-06-04T07:39:17;101342.75;;;14.33;56.07
52693;BME280;68218;51.012;-1.648;2023-06-04T07:41:42;101349.94;;;14.97;54.68
52693;BME280;68218;51.012;-1.648;2023-06-04T07:44:08;101355.16;;;15.14;53.73
52693;BME280;68218;51.012;-1.648;2023-06-04T07:46:33;101347.34;;;15.28;53.13
52693;BME280;68218;51.012;-1.648;2023-06-04T07:48:58;101349.19;;;15.17;53.51
52693;BME280;68218;51.012;-1.648;2023-06-04T07:51:24;101348.63;;;15.05;53.90
52693;BME280;68218;51.012;-1.648;2023-06-04T07:53:50;101345.78;;;15.52;55.00
52693;BME280;68218;51.012;-1.648;2023-06-04T07:56:16;101341.50;;;15.77;52.41
52693;BME280;68218;51.012;-1.648;2023-06-04T07:58:41;101338.53;;;16.04;51.78
52693;BME280;68218;51.012;-1.648;2023-06-04T08:01:06;101354.25;;;16.74;52.33
52693;BME280;68218;51.012;-1.648;2023-06-04T08:03:32;101356.00;;;17.20;50.28
52693;BME280;68218;51.012;-1.648;2023-06-04T08:05:57;101359.38;;;16.81;50.48
52693;BME280;68218;51.012;-1.648;2023-06-04T08:08:23;101369.28;;;16.20;50.31
52693;BME280;68218;51.012;-1.648;2023-06-04T08:10:48;101357.56;;;16.51;51.95
52693;BME280;68218;51.012;-1.648;2023-06-04T08:13:13;101369.53;;;16.19;50.98
52693;BME280;68218;51.012;-1.648;2023-06-04T08:15:39;101357.56;;;16.40;52.10
52693;BME280;68218;51.012;-1.648;2023-06-04T08:18:04;101365.19;;;16.43;50.20
52693;BME280;68218;51.012;-1.648;2023-06-04T08:20:30;101366.53;;;16.41;50.55
52693;BME280;68218;51.012;-1.648;2023-06-04T08:22:55;101365.63;;;17.07;49.23
52693;BME280;68218;51.012;-1.648;2023-06-04T08:25:20;101359.19;;;16.41;49.51
52693;BME280;68218;51.012;-1.648;2023-06-04T08:27:46;101362.75;;;16.11;50.91
52693;BME280;68218;51.012;-1.648;2023-06-04T08:30:11;101367.38;;;16.21;50.84
52693;BME280;68218;51.012;-1.648;2023-06-04T08:32:36;101366.53;;;16.46;50.83
52693;BME280;68218;51.012;-1.648;2023-06-04T08:35:02;101354.84;;;17.36;49.37
52693;BME280;68218;51.012;-1.648;2023-06-04T08:37:28;101335.97;;;17.90;47.31
52693;BME280;68218;51.012;-1.648;2023-06-04T08:39:53;101366.56;;;17.87;46.54
52693;BME280;68218;51.012;-1.648;2023-06-04T08:42:26;101357.78;;;17.50;47.92
52693;BME280;68218;51.012;-1.648;2023-06-04T08:44:52;101365.47;;;17.83;48.05
52693;BME280;68218;51.012;-1.648;2023-06-04T08:47:19;101365.78;;;17.76;47.22
52693;BME280;68218;51.012;-1.648;2023-06-04T08:49:49;101372.13;;;18.11;46.51
52693;BME280;68218;51.012;-1.648;2023-06-04T08:52:15;101367.84;;;18.34;47.07
52693;BME280;68218;51.012;-1.648;2023-06-04T08:54:41;101345.22;;;18.58;46.71
52693;BME280;68218;51.012;-1.648;2023-06-04T08:57:07;101365.97;;;19.31;46.45
52693;BME280;68218;51.012;-1.648;2023-06-04T08:59:33;101358.38;;;19.47;45.56
52693;BME280;68218;51.012;-1.648;2023-06-04T09:01:59;101358.59;;;19.32;43.46
52693;BME280;68218;51.012;-1.648;2023-06-04T09:04:25;101364.19;;;18.73;47.14
52693;BME280;68218;51.012;-1.648;2023-06-04T09:06:52;101362.38;;;19.12;46.32
52693;BME280;68218;51.012;-1.648;2023-06-04T09:09:18;101365.19;;;18.82;43.50
52693;BME280;68218;51.012;-1.648;2023-06-04T09:11:55;101359.81;;;19.20;43.68
52693;BME280;68218;51.012;-1.648;2023-06-04T09:14:22;101369.66;;;19.21;43.46
52693;BME280;68218;51.012;-1.648;2023-06-04T09:16:52;101370.31;;;18.60;44.92
52693;BME280;68218;51.012;-1.648;2023-06-04T09:19:19;101363.22;;;18.59;46.07
52693;BME280;68218;51.012;-1.648;2023-06-04T09:21:55;101370.09;;;18.85;44.98
52693;BME280;68218;51.012;-1.648;2023-06-04T09:24:25;101371.63;;;18.92;43.83
52693;BME280;68218;51.012;-1.648;2023-06-04T09:26:51;101369.84;;;19.68;43.18
52693;BME280;68218;51.012;-1.648;2023-06-04T09:29:17;101365.22;;;19.25;43.63
52693;BME280;68218;51.012;-1.648;2023-06-04T09:31:47;101365.66;;;18.89;44.28
52693;BME280;68218;51.012;-1.648;2023-06-04T09:34:13;101363.63;;;19.62;42.35
52693;BME280;68218;51.012;-1.648;2023-06-04T09:36:39;101360.69;;;19.78;41.47
52693;BME280;68218;51.012;-1.648;2023-06-04T09:39:17;101363.84;;;20.37;41.38
52693;BME280;68218;51.012;-1.648;2023-06-04T09:41:43;101363.84;;;20.84;41.32
52693;BME280;68218;51.012;-1.648;2023-06-04T09:44:08;101365.72;;;21.25;41.67
52693;BME280;68218;51.012;-1.648;2023-06-04T09:46:36;101368.94;;;20.44;38.88
52693;BME280;68218;51.012;-1.648;2023-06-04T09:49:04;101362.50;;;20.95;39.36
52693;BME280;68218;51.012;-1.648;2023-06-04T09:51:30;101363.81;;;21.25;38.40
52693;BME280;68218;51.012;-1.648;2023-06-04T09:53:57;101361.72;;;21.59;39.58
52693;BME280;68218;51.012;-1.648;2023-06-04T09:56:23;101366.22;;;21.41;38.49
52693;BME280;68218;51.012;-1.648;2023-06-04T09:58:49;101366.59;;;20.98;38.15
52693;BME280;68218;51.012;-1.648;2023-06-04T10:01:15;101375.88;;;21.88;37.14
52693;BME280;68218;51.012;-1.648;2023-06-04T10:03:44;101371.13;;;22.03;36.44
52693;BME280;68218;51.012;-1.648;2023-06-04T10:06:14;101368.78;;;22.64;35.79
52693;BME280;68218;51.012;-1.648;2023-06-04T10:08:41;101361.25;;;22.87;39.18
52693;BME280;68218;51.012;-1.648;2023-06-04T10:11:08;101366.53;;;21.53;36.68
52693;BME280;68218;51.012;-1.648;2023-06-04T10:14:00;101378.56;;;21.80;39.83
52693;BME280;68218;51.012;-1.648;2023-06-04T10:16:28;101372.41;;;21.83;38.79
52693;BME280;68218;51.012;-1.648;2023-06-04T10:18:55;101355.59;;;22.21;37.12
52693;BME280;68218;51.012;-1.648;2023-06-04T10:21:22;101376.84;;;21.70;36.95
52693;BME280;68218;51.012;-1.648;2023-06-04T10:23:49;101375.88;;;21.88;38.11
52693;BME280;68218;51.012;-1.648;2023-06-04T10:26:16;101364.63;;;22.44;35.94
52693;BME280;68218;51.012;-1.648;2023-06-04T10:28:42;101380.66;;;21.46;37.75
52693;BME280;68218;51.012;-1.648;2023-06-04T10:31:12;101388.19;;;21.27;37.59
52693;BME280;68218;51.012;-1.648;2023-06-04T10:33:39;101375.44;;;21.45;37.99
52693;BME280;68218;51.012;-1.648;2023-06-04T10:36:21;101372.03;;;21.76;37.03
52693;BME280;68218;51.012;-1.648;2023-06-04T10:38:48;101373.81;;;21.94;36.49
52693;BME280;68218;51.012;-1.648;2023-06-04T10:41:15;101382.41;;;21.01;37.80
52693;BME280;68218;51.012;-1.648;2023-06-04T10:43:47;101373.72;;;21.35;38.00
52693;BME280;68218;51.012;-1.648;2023-06-04T10:46:17;101376.69;;;21.39;38.30
52693;BME280;68218;51.012;-1.648;2023-06-04T10:48:50;101381.25;;;21.43;37.86
52693;BME280;68218;51.012;-1.648;2023-06-04T10:51:29;101377.47;;;21.67;37.73
52693;BME280;68218;51.012;-1.648;2023-06-04T10:53:57;101381.13;;;22.44;37.21
52693;BME280;68218;51.012;-1.648;2023-06-04T10:56:30;101376.19;;;23.04;36.65
52693;BME280;68218;51.012;-1.648;2023-06-04T10:58:58;101380.25;;;22.35;36.47
52693;BME280;68218;51.012;-1.648;2023-06-04T11:01:27;101371.00;;;23.02;36.64
52693;BME280;68218;51.012;-1.648;2023-06-04T11:03:57;101369.34;;;23.32;33.70
52693;BME280;68218;51.012;-1.648;2023-06-04T11:06:23;101370.25;;;23.10;33.93
52693;BME280;68218;51.012;-1.648;2023-06-04T11:09:13;101372.16;;;22.30;36.68
52693;BME280;68218;51.012;-1.648;2023-06-04T11:11:41;101374.69;;;23.37;34.02
52693;BME280;68218;51.012;-1.648;2023-06-04T11:14:10;101387.09;;;23.09;34.01
52693;BME280;68218;51.012;-1.648;2023-06-04T11:16:38;101384.81;;;22.71;34.67
52693;BME280;68218;51.012;-1.648;2023-06-04T11:19:03;101378.44;;;23.59;34.22
52693;BME280;68218;51.012;-1.648;2023-06-04T11:21:29;101377.00;;;23.88;33.77
52693;BME280;68218;51.012;-1.648;2023-06-04T11:23:57;101375.38;;;24.04;31.95
52693;BME280;68218;51.012;-1.648;2023-06-04T11:26:30;101378.94;;;23.96;33.89
52693;BME280;68218;51.012;-1.648;2023-06-04T11:28:55;101382.06;;;24.68;32.53
52693;BME280;68218;51.012;-1.648;2023-06-04T11:31:21;101383.13;;;24.02;32.91
52693;BME280;68218;51.012;-1.648;2023-06-04T11:33:47;101371.78;;;23.78;32.67
52693;BME280;68218;51.012;-1.648;2023-06-04T11:36:26;101367.66;;;24.45;32.11
52693;BME280;68218;51.012;-1.648;2023-06-04T11:39:03;101374.88;;;23.93;33.63
52693;BME280;68218;51.012;-1.648;2023-06-04T11:41:33;101380.22;;;24.25;31.73
52693;BME280;68218;51.012;-1.648;2023-06-04T11:44:05;101374.94;;;24.49;31.50
52693;BME280;68218;51.012;-1.648;2023-06-04T11:46:39;101379.50;;;24.37;31.65
52693;BME280;68218;51.012;-1.648;2023-06-04T11:49:05;101368.59;;;24.96;33.46
52693;BME280;68218;51.012;-1.648;2023-06-04T11:51:32;101373.03;;;24.41;30.29
52693;BME280;68218;51.012;-1.648;2023-06-04T11:53:58;101371.13;;;24.80;29.86
52693;BME280;68218;51.012;-1.648;2023-06-04T11:56:24;101375.34;;;23.78;31.70
52693;BME280;68218;51.012;-1.648;2023-06-04T11:58:51;101367.94;;;23.96;30.63
52693;BME280;68218;51.012;-1.648;2023-06-04T12:01:17;101364.97;;;24.19;31.08
52693;BME280;68218;51.012;-1.648;2023-06-04T12:03:43;101371.72;;;24.47;33.69
52693;BME280;68218;51.012;-1.648;2023-06-04T12:06:16;101373.31;;;24.96;31.81
52693;BME280;68218;51.012;-1.648;2023-06-04T12:11:32;101364.66;;;25.06;29.56
52693;BME280;68218;51.012;-1.648;2023-06-04T12:14:00;101372.03;;;24.46;31.76
52693;BME280;68218;51.012;-1.648;2023-06-04T12:16:26;101364.38;;;24.52;29.87
52693;BME280;68218;51.012;-1.648;2023-06-04T12:19:04;101356.09;;;24.99;33.14
52693;BME280;68218;51.012;-1.648;2023-06-04T12:21:29;101364.94;;;25.64;29.19
52693;BME280;68218;51.012;-1.648;2023-06-04T12:24:11;101349.16;;;26.19;27.31
52693;BME280;68218;51.012;-1.648;2023-06-04T12:26:39;101355.63;;;25.90;31.98
52693;BME280;68218;51.012;-1.648;2023-06-04T12:29:17;101351.94;;;25.65;30.67
52693;BME280;68218;51.012;-1.648;2023-06-04T12:31:45;101352.22;;;24.91;30.12
52693;BME280;68218;51.012;-1.648;2023-06-04T12:34:14;101355.44;;;25.02;28.68
52693;BME280;68218;51.012;-1.648;2023-06-04T12:36:40;101351.38;;;25.29;32.43
52693;BME280;68218;51.012;-1.648;2023-06-04T12:39:06;101356.06;;;25.58;28.04
52693;BME280;68218;51.012;-1.648;2023-06-04T12:41:32;101353.91;;;25.64;30.80
52693;BME280;68218;51.012;-1.648;2023-06-04T12:44:01;101339.34;;;26.92;28.95
52693;BME280;68218;51.012;-1.648;2023-06-04T12:46:27;101354.69;;;26.07;30.40